Time;durP1;ratioP1;P1;durP2;ratioP2;P2;SDS_P1;SDS_P2;PMS_P1;PMS_P2;Temp;Humidity;BMP_temperature;BMP_pressure;BME280_temperature;BME280_humidity;BME280_pressure;Samples;Min_cycle;Max_cycle;Signal;HPM_P1;HPM_P2
2022/09/10 00:01:59;;;;;;;16.90;15.30;;;;;;;18.56;93.00;92833.56;5069736;28;20252;-71
2022/09/10 00:04:26;;;;;;;15.03;13.53;;;;;;;18.36;94.80;92829.00;5069524;28;20224;-71
2022/09/10 00:06:51;;;;;;;15.87;14.47;;;;;;;18.23;95.77;92827.38;5069505;28;20180;-71
2022/09/10 00:09:17;;;;;;;14.90;13.60;;;;;;;18.29;96.42;92823.47;5057114;28;20251;-70
2022/09/10 00:11:45;;;;;;;16.30;14.80;;;;;;;18.33;96.20;92832.28;5069588;28;20267;-73
2022/09/10 00:14:17;;;;;;;15.33;13.80;;;;;;;18.25;96.38;92819.91;5068980;28;20223;-71
2022/09/10 00:16:43;;;;;;;16.03;14.60;;;;;;;18.23;96.94;92822.06;5070104;28;20180;-71
2022/09/10 00:19:08;;;;;;;15.80;14.10;;;;;;;18.24;96.44;92813.06;5069088;28;20224;-71
2022/09/10 00:21:34;;;;;;;16.40;14.97;;;;;;;18.47;96.32;92830.22;5068842;28;20200;-71
2022/09/10 00:24:01;;;;;;;17.20;15.53;;;;;;;18.46;96.11;92828.69;5072575;28;20219;-72
2022/09/10 00:26:29;;;;;;;15.27;13.97;;;;;;;18.47;95.77;92836.28;5075778;28;20193;-72
2022/09/10 00:28:58;;;;;;;16.47;14.90;;;;;;;18.25;96.80;92807.47;5065518;28;20252;-71
2022/09/10 00:31:24;;;;;;;16.53;15.03;;;;;;;18.32;96.30;92830.75;5049510;28;20180;-71
2022/09/10 00:33:50;;;;;;;16.27;14.77;;;;;;;18.53;95.27;92826.28;5048065;28;20220;-71
2022/09/10 00:36:18;;;;;;;17.73;15.50;;;;;;;18.59;93.60;92812.56;5049915;28;20191;-70
2022/09/10 00:38:44;;;;;;;14.40;13.23;;;;;;;18.40;95.67;92814.06;5052316;28;20282;-71
2022/09/10 00:41:09;;;;;;;16.40;13.20;;;;;;;18.67;94.63;92832.09;5075527;28;20198;-71
2022/09/10 00:43:55;;;;;;;17.20;15.60;;;;;;;18.74;93.48;92833.13;5074610;28;20298;-72
2022/09/10 00:46:44;;;;;;;16.30;14.80;;;;;;;18.77;92.83;92816.59;5074944;28;20183;-72
2022/09/10 00:49:27;;;;;;;15.47;14.20;;;;;;;18.94;92.32;92826.31;5080911;28;20222;-71
2022/09/10 00:51:53;;;;;;;17.33;15.53;;;;;;;19.06;91.57;92836.94;5063509;28;20167;-72
2022/09/10 00:54:22;;;;;;;16.17;14.60;;;;;;;19.05;91.77;92833.50;5062465;28;20247;-71
2022/09/10 00:56:49;;;;;;;17.00;15.47;;;;;;;19.08;91.36;92832.84;5048875;28;20180;-72
2022/09/10 00:59:19;;;;;;;14.67;13.47;;;;;;;19.05;91.81;92830.09;5060426;28;20249;-71
2022/09/10 01:01:45;;;;;;;15.87;14.40;;;;;;;19.02;92.12;92831.50;5078712;28;20216;-70
2022/09/10 01:04:10;;;;;;;15.70;14.13;;;;;;;19.02;92.56;92828.06;5080347;28;20237;-72
2022/09/10 01:06:38;;;;;;;16.20;14.37;;;;;;;18.89;92.35;92792.88;5087098;28;20243;-72
2022/09/10 01:09:05;;;;;;;14.98;13.60;;;;;;;19.06;92.18;92829.00;5085487;28;20260;-72
2022/09/10 01:11:58;;;;;;;15.83;14.37;;;;;;;19.01;92.32;92819.38;5084424;28;20176;-71
2022/09/10 01:14:24;;;;;;;16.10;14.53;;;;;;;18.93;93.52;92814.16;5070310;28;20219;-71
2022/09/10 01:17:08;;;;;;;17.20;15.07;;;;;;;18.98;93.01;92814.75;5076389;28;20199;-71
2022/09/10 01:19:53;;;;;;;15.53;14.13;;;;;;;19.00;92.76;92814.41;5061866;28;20234;-71
2022/09/10 01:22:39;;;;;;;15.10;13.90;;;;;;;19.00;93.17;92812.53;5085719;28;20208;-72
2022/09/10 01:25:30;;;;;;;15.33;13.90;;;;;;;19.05;91.88;92807.03;5074606;28;20233;-72
2022/09/10 01:28:00;;;;;;;15.43;14.00;;;;;;;18.96;92.12;92792.34;5035768;28;20272;-71
2022/09/10 01:30:33;;;;;;;16.33;14.17;;;;;;;18.89;92.58;92781.50;5051584;28;20303;-72
2022/09/10 01:33:23;;;;;;;14.73;13.30;;;;;;;19.00;93.57;92803.84;5050607;28;20180;-72
2022/09/10 01:36:05;;;;;;;15.97;14.67;;;;;;;18.91;92.59;92779.31;5070787;28;20212;-72
2022/09/10 01:38:34;;;;;;;15.83;14.33;;;;;;;19.01;93.03;92800.06;5063748;28;20278;-72
2022/09/10 01:41:00;;;;;;;15.30;14.00;;;;;;;19.01;93.46;92800.06;5072612;28;20223;-73
2022/09/10 01:43:26;;;;;;;16.17;14.67;;;;;;;19.02;92.74;92802.41;5072512;28;20203;-72
2022/09/10 01:46:09;;;;;;;15.63;14.13;;;;;;;19.04;92.64;92810.00;5072573;28;20246;-72
2022/09/10 01:49:00;;;;;;;15.57;14.07;;;;;;;19.03;93.12;92798.66;5070072;28;20226;-72
2022/09/10 01:51:57;;;;;;;15.67;14.40;;;;;;;19.04;93.15;92799.44;5064636;28;20206;-73
2022/09/10 01:54:35;;;;;;;15.53;14.20;;;;;;;19.04;93.44;92804.72;5077269;28;20314;-73
2022/09/10 01:57:43;;;;;;;16.93;15.30;;;;;;;18.89;94.06;92810.63;5081121;28;20177;-71
2022/09/10 02:00:12;;;;;;;16.83;15.13;;;;;;;18.90;93.43;92791.78;5086568;28;20248;-70
2022/09/10 02:02:43;;;;;;;15.53;14.20;;;;;;;18.96;93.38;92809.00;5068800;28;20237;-72
2022/09/10 02:05:10;;;;;;;15.57;14.07;;;;;;;18.75;93.59;92786.31;5050141;28;20260;-69
2022/09/10 02:07:36;;;;;;;15.50;14.07;;;;;;;18.83;95.03;92815.31;5050331;28;20212;-71
2022/09/10 02:10:04;;;;;;;15.93;14.23;;;;;;;18.58;96.26;92821.59;5063203;28;20218;-71
2022/09/10 02:12:30;;;;;;;17.27;14.70;;;;;;;18.53;96.70;92821.78;5072177;28;20194;-70
2022/09/10 02:14:57;;;;;;;16.47;14.97;;;;;;;18.46;95.86;92787.13;5059350;28;20927;-70
2022/09/10 02:17:29;;;;;;;17.93;16.07;;;;;;;18.75;96.10;92823.34;5052029;28;20177;-71
2022/09/10 02:19:57;;;;;;;15.87;14.57;;;;;;;18.44;95.80;92772.69;5051731;28;20243;-71
2022/09/10 02:22:22;;;;;;;16.63;15.03;;;;;;;18.88;94.77;92819.63;5047453;28;20212;-71
2022/09/10 02:24:49;;;;;;;15.93;14.40;;;;;;;18.79;95.49;92813.66;5062368;28;20296;-71
2022/09/10 02:27:15;;;;;;;16.27;14.67;;;;;;;18.69;95.36;92803.47;5071750;28;20167;-71
2022/09/10 02:29:41;;;;;;;15.87;14.50;;;;;;;18.70;95.60;92802.38;5071594;28;20227;-71
2022/09/10 02:32:07;;;;;;;18.60;15.23;;;;;;;18.75;95.88;92807.47;5070956;28;20176;-71
2022/09/10 02:34:33;;;;;;;16.57;14.90;;;;;;;18.61;95.68;92788.44;5071531;28;20253;-71
2022/09/10 02:36:58;;;;;;;17.53;15.77;;;;;;;18.70;96.03;92805.78;5071608;28;20175;-71
2022/09/10 02:39:24;;;;;;;17.27;15.77;;;;;;;18.65;96.11;92799.91;5078950;28;20240;-71
2022/09/10 02:41:50;;;;;;;17.00;15.30;;;;;;;18.62;96.40;92790.75;5063040;28;20202;-70
2022/09/10 02:44:15;;;;;;;17.37;15.70;;;;;;;18.39;96.52;92762.31;5071279;28;20223;-70
2022/09/10 02:46:41;;;;;;;16.57;14.97;;;;;;;18.83;96.10;92817.22;5071854;28;20195;-71
2022/09/10 02:49:06;;;;;;;17.37;15.80;;;;;;;18.78;95.52;92806.81;5081715;28;20221;-71
2022/09/10 02:51:32;;;;;;;15.20;14.00;;;;;;;18.80;95.43;92810.66;5089169;28;20233;-71
2022/09/10 02:53:57;;;;;;;17.47;15.87;;;;;;;18.75;95.68;92812.75;5069151;28;20216;-71
2022/09/10 02:56:22;;;;;;;20.40;15.50;;;;;;;18.73;95.67;92805.13;5051340;28;20192;-71
2022/09/10 02:58:49;;;;;;;17.23;15.53;;;;;;;18.76;95.98;92816.94;5053695;28;20193;-71
2022/09/10 03:01:17;;;;;;;19.57;17.67;;;;;;;18.65;96.15;92819.19;5071268;28;20182;-70
2022/09/10 03:03:49;;;;;;;16.47;14.97;;;;;;;18.50;96.78;92803.91;5081650;28;20223;-71
2022/09/10 03:06:14;;;;;;;17.23;15.50;;;;;;;18.59;96.63;92814.41;5077316;28;20248;-70
2022/09/10 03:08:40;;;;;;;17.27;15.50;;;;;;;18.58;97.10;92818.16;5087032;28;20187;-70
2022/09/10 03:11:05;;;;;;;16.97;15.30;;;;;;;18.57;96.91;92819.25;5090158;28;20251;-71
2022/09/10 03:13:31;;;;;;;16.43;14.83;;;;;;;18.57;97.08;92821.88;5076606;28;20183;-71
2022/09/10 03:15:57;;;;;;;17.13;15.47;;;;;;;18.53;97.02;92813.06;5070890;28;20198;-72
2022/09/10 03:18:23;;;;;;;17.37;15.50;;;;;;;18.50;96.78;92806.56;5082731;28;20251;-71
2022/09/10 03:20:49;;;;;;;17.27;15.67;;;;;;;18.52;96.92;92811.53;5070972;28;20296;-71
2022/09/10 03:23:16;;;;;;;17.47;15.83;;;;;;;18.60;97.28;92822.03;5070787;28;20216;-71
2022/09/10 03:25:41;;;;;;;18.83;14.67;;;;;;;18.66;97.31;92827.91;5082111;28;20226;-71
2022/09/10 03:28:06;;;;;;;16.27;14.63;;;;;;;18.64;97.04;92811.59;5070684;28;20215;-71
2022/09/10 03:30:32;;;;;;;17.10;15.30;;;;;;;18.72;96.63;92821.34;5053821;28;20228;-70
2022/09/10 03:32:57;;;;;;;18.80;16.37;;;;;;;18.55;96.69;92800.31;5050411;28;20182;-71
2022/09/10 03:35:23;;;;;;;19.53;15.77;;;;;;;18.82;95.31;92808.50;5064686;28;20311;-70
2022/09/10 03:37:49;;;;;;;17.47;15.93;;;;;;;18.74;95.53;92808.56;5070584;28;20195;-72
2022/09/10 03:40:14;;;;;;;16.83;15.13;;;;;;;18.70;96.58;92799.72;5078194;28;20279;-71
2022/09/10 03:42:41;;;;;;;16.13;14.37;;;;;;;18.63;97.37;92799.47;5064988;28;20207;-71
2022/09/10 03:45:07;;;;;;;17.53;15.90;;;;;;;18.56;98.29;92802.63;5069487;28;20214;-70
2022/09/10 03:47:33;;;;;;;16.10;14.70;;;;;;;18.60;97.98;92805.41;5070563;28;20206;-71
2022/09/10 03:49:58;;;;;;;16.63;15.03;;;;;;;18.52;97.97;92791.13;5065227;28;20208;-70
2022/09/10 03:52:25;;;;;;;17.53;15.93;;;;;;;18.61;98.22;92799.00;5062712;28;20337;-71
2022/09/10 03:54:50;;;;;;;18.43;16.80;;;;;;;18.51;97.82;92770.28;5069554;28;20257;-72
2022/09/10 03:57:16;;;;;;;18.23;16.43;;;;;;;18.42;98.75;92766.94;5070030;28;20188;-71
2022/09/10 03:59:41;;;;;;;17.57;15.70;;;;;;;18.38;98.39;92758.13;5078732;28;20214;-68
2022/09/10 04:02:08;;;;;;;18.30;16.33;;;;;;;18.43;98.61;92766.63;5077491;28;20230;-71
2022/09/10 04:04:36;;;;;;;19.97;15.90;;;;;;;18.61;98.22;92796.38;5069949;28;20712;-71
2022/09/10 04:07:02;;;;;;;19.30;16.50;;;;;;;18.43;99.20;92787.00;5068082;28;20192;-71
2022/09/10 04:09:27;;;;;;;20.03;17.60;;;;;;;18.42;98.78;92773.03;5076071;28;20219;-70
2022/09/10 04:11:53;;;;;;;17.93;16.27;;;;;;;18.59;99.13;92798.56;5076187;28;20191;-70
2022/09/10 04:14:18;;;;;;;17.33;15.57;;;;;;;18.63;98.82;92802.88;5069039;28;20216;-71
2022/09/10 04:16:43;;;;;;;18.00;16.30;;;;;;;18.59;99.09;92814.41;5069903;28;20180;-71
2022/09/10 04:19:09;;;;;;;18.00;16.20;;;;;;;18.56;98.87;92804.50;5069643;28;20235;-69
2022/09/10 04:21:34;;;;;;;18.87;16.87;;;;;;;18.55;99.11;92809.00;5070046;28;20203;-70
2022/09/10 04:24:00;;;;;;;19.30;16.20;;;;;;;18.58;98.92;92805.72;5069096;28;20274;-71
2022/09/10 04:26:26;;;;;;;17.97;16.17;;;;;;;18.58;99.29;92815.53;5069706;28;20167;-70
2022/09/10 04:28:52;;;;;;;18.03;16.27;;;;;;;18.58;99.48;92820.81;5068723;28;20231;-70
2022/09/10 04:31:18;;;;;;;19.47;17.00;;;;;;;18.72;98.55;92813.41;5069449;28;20218;-69
2022/09/10 04:33:43;;;;;;;18.57;16.77;;;;;;;18.77;97.84;92818.50;5068755;28;20183;-71
2022/09/10 04:36:09;;;;;;;18.53;16.60;;;;;;;18.60;99.78;92815.97;5070061;28;20265;-70
2022/09/10 04:38:38;;;;;;;18.43;16.43;;;;;;;18.41;100.00;92820.94;5069017;28;20187;-67
2022/09/10 04:41:04;;;;;;;17.97;16.07;;;;;;;18.59;99.54;92819.72;5069513;28;20192;-68
2022/09/10 04:43:30;;;;;;;19.37;17.23;;;;;;;18.62;98.54;92811.13;5069491;28;20278;-68
2022/09/10 04:45:55;;;;;;;20.75;16.98;;;;;;;18.71;98.56;92823.19;5069460;28;20278;-67
2022/09/10 04:48:23;;;;;;;18.47;16.40;;;;;;;18.67;98.34;92805.66;5069622;28;20188;-67
2022/09/10 04:50:49;;;;;;;17.90;16.30;;;;;;;18.61;98.15;92799.00;5069151;28;20215;-67
2022/09/10 04:53:15;;;;;;;19.37;16.93;;;;;;;18.69;98.71;92808.75;5063374;28;20280;-67
2022/09/10 04:55:42;;;;;;;17.50;15.70;;;;;;;18.71;99.19;92806.53;5073955;28;20215;-67
2022/09/10 04:58:08;;;;;;;18.10;16.33;;;;;;;18.66;100.00;92794.28;5068974;28;20311;-69
2022/09/10 05:00:34;;;;;;;16.83;15.27;;;;;;;18.75;99.92;92796.88;5052179;28;20296;-67
2022/09/10 05:02:59;;;;;;;20.50;15.80;;;;;;;18.89;99.06;92810.63;5048377;28;20232;-68
2022/09/10 05:05:27;;;;;;;17.50;15.00;;;;;;;18.77;98.93;92794.69;5063817;28;20224;-67
2022/09/10 05:07:52;;;;;;;17.90;16.37;;;;;;;18.81;99.61;92811.47;5069462;28;20187;-66
2022/09/10 05:10:22;;;;;;;18.17;16.20;;;;;;;18.85;99.45;92793.81;5060274;28;20215;-67
2022/09/10 05:12:47;;;;;;;19.00;17.17;;;;;;;18.78;99.96;92812.88;5067208;28;20190;-69
2022/09/10 05:15:13;;;;;;;17.60;15.73;;;;;;;18.83;99.85;92811.91;5068505;28;20233;-66
2022/09/10 05:17:39;;;;;;;16.77;15.37;;;;;;;18.70;100.00;92791.78;5069268;28;20187;-66
2022/09/10 05:20:06;;;;;;;17.47;15.80;;;;;;;18.79;100.00;92776.59;5069508;28;20245;-67
2022/09/10 05:22:33;;;;;;;21.00;18.30;;;;;;;19.00;99.61;92798.53;5067797;28;20237;-68
2022/09/10 05:24:59;;;;;;;18.33;16.37;;;;;;;19.02;99.24;92796.31;5057642;28;20242;-69
2022/09/10 05:27:24;;;;;;;20.53;16.63;;;;;;;18.76;100.00;92780.69;5031439;28;20173;-69
2022/09/10 05:29:49;;;;;;;20.23;16.77;;;;;;;18.83;100.00;92803.97;5042481;28;20247;-69
2022/09/10 05:32:15;;;;;;;25.37;17.70;;;;;;;18.75;100.00;92802.94;5048589;28;20211;-69
2022/09/10 05:34:40;;;;;;;18.33;16.47;;;;;;;18.97;100.00;92836.25;5047729;28;20287;-69
2022/09/10 05:37:07;;;;;;;18.83;16.63;;;;;;;19.18;98.67;92827.16;5047056;28;20191;-70
2022/09/10 05:39:33;;;;;;;19.37;16.87;;;;;;;19.19;97.22;92812.06;5047964;28;20217;-69
2022/09/10 05:41:59;;;;;;;19.40;17.50;;;;;;;19.39;95.98;92837.75;5048408;28;20247;-69
2022/09/10 05:44:25;;;;;;;18.63;16.63;;;;;;;19.48;94.85;92827.06;5043169;28;20218;-69
2022/09/10 05:46:51;;;;;;;20.57;17.00;;;;;;;19.40;96.11;92828.72;5068116;28;20255;-70
2022/09/10 05:49:16;;;;;;;19.87;17.90;;;;;;;19.31;95.80;92829.88;5067299;28;20306;-69
2022/09/10 05:51:41;;;;;;;20.23;18.30;;;;;;;19.54;94.08;92821.25;5066314;28;20185;-70
2022/09/10 05:54:07;;;;;;;19.83;17.80;;;;;;;19.83;93.59;92825.59;5067640;28;20228;-69
2022/09/10 05:56:33;;;;;;;22.50;17.13;;;;;;;20.07;91.91;92818.44;5068175;28;20188;-68
2022/09/10 05:58:59;;;;;;;18.63;16.17;;;;;;;20.41;88.85;92815.34;5066462;28;20228;-67
2022/09/10 06:01:24;;;;;;;19.20;17.42;;;;;;;20.49;88.68;92806.50;5067750;28;20276;-67
2022/09/10 06:03:50;;;;;;;20.55;16.67;;;;;;;20.79;87.57;92814.19;5067864;28;20226;-67
2022/09/10 06:06:16;;;;;;;19.23;17.25;;;;;;;21.05;82.88;92814.56;5078266;28;20189;-66
2022/09/10 06:08:41;;;;;;;17.95;16.17;;;;;;;21.21;83.54;92812.75;5077211;28;20191;-67
2022/09/10 06:11:09;;;;;;;18.52;16.65;;;;;;;21.18;84.26;92810.78;5076193;28;20195;-68
2022/09/10 06:13:38;;;;;;;18.80;16.27;;;;;;;20.83;84.97;92817.69;5070510;28;20201;-69
2022/09/10 06:16:03;;;;;;;19.65;17.58;;;;;;;20.73;86.10;92802.25;5051634;28;20190;-68
2022/09/10 06:18:30;;;;;;;19.70;16.95;;;;;;;21.12;83.76;92822.75;5051121;28;20224;-70
2022/09/10 06:21:07;;;;;;;21.83;16.70;;;;;;;20.73;85.56;92811.00;5069013;28;20230;-70
2022/09/10 06:23:34;;;;;;;21.02;17.48;;;;;;;20.84;84.93;92814.72;5067471;28;20205;-69
2022/09/10 06:26:05;;;;;;;21.23;19.08;;;;;;;21.33;83.60;92821.44;5070761;28;20211;-68
2022/09/10 06:28:32;;;;;;;22.23;17.40;;;;;;;21.69;81.85;92820.47;5070530;28;20238;-69
2022/09/10 06:30:58;;;;;;;25.38;17.85;;;;;;;21.70;80.74;92833.41;5069924;28;20210;-68
2022/09/10 06:33:23;;;;;;;28.33;19.98;;;;;;;21.41;81.88;92828.50;5064454;28;20234;-69
2022/09/10 06:35:56;;;;;;;24.10;19.13;;;;;;;21.35;82.94;92842.34;5068785;28;20239;-69
2022/09/10 06:38:23;;;;;;;20.60;18.40;;;;;;;21.30;82.29;92850.56;5072487;28;20176;-69
2022/09/10 06:40:58;;;;;;;22.20;19.33;;;;;;;21.18;83.12;92842.63;5068450;28;20229;-67
2022/09/10 06:43:27;;;;;;;26.67;18.25;;;;;;;21.11;83.50;92832.59;5071706;28;20206;-68
2022/09/10 06:45:53;;;;;;;27.00;19.75;;;;;;;21.14;83.01;92831.13;5069568;28;20226;-70
2022/09/10 06:48:20;;;;;;;24.98;20.98;;;;;;;21.21;82.90;92828.69;5068268;28;20187;-68
2022/09/10 06:50:54;;;;;;;22.55;19.05;;;;;;;21.17;83.41;92819.84;5062602;28;20230;-68
2022/09/10 06:53:21;;;;;;;21.85;18.00;;;;;;;21.18;83.92;92818.75;5069106;28;20191;-70
2022/09/10 06:55:50;;;;;;;21.88;18.52;;;;;;;21.50;82.21;92823.78;5070166;28;20242;-69
2022/09/10 06:58:17;;;;;;;21.80;18.73;;;;;;;21.56;81.43;92821.66;5069712;28;20195;-67
2022/09/10 07:00:44;;;;;;;25.83;19.75;;;;;;;21.64;81.24;92823.38;5050459;28;20233;-67
2022/09/10 07:03:09;;;;;;;27.67;19.98;;;;;;;21.46;82.44;92832.78;5050445;28;20365;-70
2022/09/10 07:05:35;;;;;;;33.72;18.10;;;;;;;21.36;83.69;92812.78;5066454;28;20241;-70
2022/09/10 07:08:00;;;;;;;26.60;21.17;;;;;;;21.88;80.60;92824.03;5059740;28;20201;-68
2022/09/10 07:10:27;;;;;;;29.55;20.33;;;;;;;21.95;80.55;92820.78;5069903;28;20221;-67
2022/09/10 07:12:53;;;;;;;23.95;18.67;;;;;;;22.15;78.80;92825.06;5062386;28;20168;-67
2022/09/10 07:15:18;;;;;;;29.30;19.35;;;;;;;21.68;82.36;92830.31;5077273;28;20247;-67
2022/09/10 07:17:44;;;;;;;20.40;18.35;;;;;;;22.18;79.91;92821.72;5077375;28;20189;-66
2022/09/10 07:20:09;;;;;;;24.38;17.98;;;;;;;22.56;77.78;92832.53;5075167;28;20215;-66
2022/09/10 07:22:36;;;;;;;23.58;19.20;;;;;;;22.72;76.23;92837.81;5076660;28;20215;-66
2022/09/10 07:25:02;;;;;;;23.15;16.52;;;;;;;22.91;74.51;92832.53;5069083;28;20223;-66
2022/09/10 07:27:28;;;;;;;19.90;16.05;;;;;;;22.46;75.38;92822.38;5070427;28;20176;-66
2022/09/10 07:29:53;;;;;;;21.10;16.73;;;;;;;22.64;73.22;92815.59;5068903;28;20220;-67
2022/09/10 07:32:18;;;;;;;18.10;15.13;;;;;;;22.27;75.22;92830.31;5067157;28;20190;-67
2022/09/10 07:34:45;;;;;;;17.55;15.57;;;;;;;22.55;74.17;92823.00;5068851;28;20242;-67
2022/09/10 07:37:14;;;;;;;20.48;15.25;;;;;;;22.47;73.98;92839.91;5063302;28;20185;-66
2022/09/10 07:39:39;;;;;;;18.35;16.35;;;;;;;22.69;72.57;92833.19;5065068;28;20293;-69
2022/09/10 07:42:05;;;;;;;16.45;14.93;;;;;;;22.77;71.92;92832.97;5075109;28;20181;-67
2022/09/10 07:44:30;;;;;;;17.02;14.10;;;;;;;22.57;73.87;92822.66;5074864;28;20234;-68
2022/09/10 07:46:56;;;;;;;16.23;14.43;;;;;;;22.32;73.93;92819.38;5065302;28;20202;-70
2022/09/10 07:49:21;;;;;;;19.25;14.50;;;;;;;22.33;74.26;92834.25;5061049;28;20228;-71
2022/09/10 07:51:46;;;;;;;17.80;15.07;;;;;;;22.35;74.61;92839.22;5069175;28;20196;-70
2022/09/10 07:54:16;;;;;;;17.35;14.35;;;;;;;22.79;72.78;92852.06;5068645;28;20251;-72
2022/09/10 07:56:41;;;;;;;17.88;13.85;;;;;;;22.72;72.37;92846.59;5070579;28;20207;-73
2022/09/10 07:59:06;;;;;;;16.02;14.52;;;;;;;22.87;71.40;92858.28;5074567;28;20224;-70
2022/09/10 08:01:32;;;;;;;17.15;14.50;;;;;;;22.39;73.70;92854.16;5070961;28;20210;-70
2022/09/10 08:03:57;;;;;;;16.42;14.93;;;;;;;22.46;73.59;92854.31;5070612;28;20228;-70
2022/09/10 08:06:23;;;;;;;17.48;14.02;;;;;;;22.83;72.22;92836.94;5069770;28;20231;-70
2022/09/10 08:08:49;;;;;;;17.10;15.13;;;;;;;22.91;72.06;92848.50;5059696;28;20181;-71
2022/09/10 08:11:17;;;;;;;15.95;14.45;;;;;;;22.71;73.51;92847.69;5104243;28;20251;-69
2022/09/10 08:13:45;;;;;;;15.43;13.48;;;;;;;22.86;74.27;92857.53;5064774;28;20188;-69
2022/09/10 08:16:13;;;;;;;16.42;14.25;;;;;;;23.18;71.71;92850.97;5040051;28;20208;-68
2022/09/10 08:18:39;;;;;;;16.35;14.68;;;;;;;23.53;68.88;92859.69;5049800;28;20186;-69
2022/09/10 08:21:07;;;;;;;15.80;14.25;;;;;;;23.70;67.88;92853.94;5042093;28;20191;-69
2022/09/10 08:23:33;;;;;;;14.77;13.30;;;;;;;23.73;67.24;92849.81;5045791;28;20196;-72
2022/09/10 08:25:58;;;;;;;16.50;14.52;;;;;;;23.46;68.05;92848.91;5045400;28;20194;-71
2022/09/10 08:28:26;;;;;;;14.32;13.07;;;;;;;23.77;66.79;92857.88;5047496;28;20199;-69
2022/09/10 08:31:07;;;;;;;17.42;15.68;;;;;;;23.78;67.70;92854.84;5045187;28;20293;-69
2022/09/10 08:33:35;;;;;;;14.45;12.93;;;;;;;23.94;65.97;92852.09;5049533;28;20196;-70
2022/09/10 08:36:01;;;;;;;15.10;13.63;;;;;;;24.54;62.84;92832.50;5049607;28;20185;-70
2022/09/10 08:38:34;;;;;;;15.48;13.85;;;;;;;24.43;63.05;92810.22;5049764;28;20172;-70
2022/09/10 08:41:06;;;;;;;15.73;13.95;;;;;;;25.07;61.25;92842.81;5045428;28;20275;-70
2022/09/10 08:43:52;;;;;;;14.43;13.27;;;;;;;24.92;60.97;92825.06;5049471;28;20200;-70
2022/09/10 08:46:22;;;;;;;14.75;13.35;;;;;;;24.35;64.63;92832.59;5049711;28;20184;-69
2022/09/10 08:49:02;;;;;;;15.38;13.98;;;;;;;24.94;63.12;92838.06;5045018;28;20176;-68
2022/09/10 08:51:35;;;;;;;18.38;13.40;;;;;;;25.09;61.99;92837.16;5042449;28;20180;-70
2022/09/10 08:54:10;;;;;;;16.65;14.13;;;;;;;25.03;60.21;92838.56;5053962;28;20226;-69
2022/09/10 08:56:39;;;;;;;14.90;13.30;;;;;;;24.50;62.89;92823.69;5069635;28;20183;-70
2022/09/10 08:59:24;;;;;;;15.15;13.55;;;;;;;25.03;61.14;92839.34;5057484;28;20216;-69
2022/09/10 09:01:55;;;;;;;16.52;13.55;;;;;;;25.07;61.08;92844.75;5068965;28;20196;-70
2022/09/10 09:04:49;;;;;;;15.48;14.00;;;;;;;24.21;63.27;92843.03;5068787;28;20272;-71
2022/09/10 09:07:18;;;;;;;18.05;13.82;;;;;;;24.12;65.30;92842.50;5061077;28;20206;-70
2022/09/10 09:09:47;;;;;;;16.92;15.13;;;;;;;24.21;64.59;92813.69;5068746;28;20232;-70
2022/09/10 09:12:19;;;;;;;14.70;12.85;;;;;;;23.61;65.11;92834.72;5063165;28;20177;-70
2022/09/10 09:15:12;;;;;;;14.57;13.27;;;;;;;23.45;65.88;92831.38;5068207;28;20224;-70
2022/09/10 09:17:55;;;;;;;15.57;14.00;;;;;;;23.81;65.83;92832.03;5069457;28;20194;-71
2022/09/10 09:20:21;;;;;;;16.88;13.82;;;;;;;23.89;66.04;92825.69;5068466;28;20235;-71
2022/09/10 09:23:24;;;;;;;18.48;15.15;;;;;;;23.96;65.19;92817.81;5068355;28;20212;-71
2022/09/10 09:25:57;;;;;;;18.90;15.35;;;;;;;23.58;66.65;92816.75;5079243;28;20230;-71
2022/09/10 09:28:51;;;;;;;15.98;14.32;;;;;;;23.60;67.68;92809.19;5060305;28;20177;-70
2022/09/10 09:31:25;;;;;;;15.60;14.20;;;;;;;23.63;67.67;92805.03;5043773;28;20197;-70
2022/09/10 09:33:59;;;;;;;16.08;14.73;;;;;;;23.62;67.42;92809.63;5052972;28;20725;-72
2022/09/10 09:36:31;;;;;;;16.40;14.90;;;;;;;23.73;67.11;92802.59;5081159;28;20204;-71
2022/09/10 09:38:56;;;;;;;16.10;14.60;;;;;;;23.59;67.32;92790.88;5075490;28;20901;-71
2022/09/10 09:41:51;;;;;;;18.40;15.18;;;;;;;23.74;68.22;92790.78;5051920;28;20232;-71
2022/09/10 09:44:30;;;;;;;22.17;14.98;;;;;;;23.82;67.85;92780.22;5052862;28;20231;-72
2022/09/10 09:46:55;;;;;;;16.20;14.73;;;;;;;24.10;66.98;92778.06;5071549;28;20192;-70
2022/09/10 09:49:22;;;;;;;16.23;14.65;;;;;;;24.19;67.10;92763.34;5072935;28;20276;-72
2022/09/10 09:51:50;;;;;;;16.35;13.98;;;;;;;24.26;66.24;92762.69;5072934;28;20219;-69
2022/09/10 09:54:21;;;;;;;15.93;14.18;;;;;;;24.44;65.52;92761.03;5072354;28;20236;-68
2022/09/10 09:56:49;;;;;;;15.30;13.65;;;;;;;24.80;63.91;92755.84;5072768;28;20795;-70
2022/09/10 09:59:33;;;;;;;16.05;14.38;;;;;;;24.65;66.89;92754.09;5059214;28;20228;-69
2022/09/10 10:02:05;;;;;;;15.85;14.45;;;;;;;24.66;64.93;92750.31;5072701;28;20229;-68
2022/09/10 10:04:32;;;;;;;20.75;14.85;;;;;;;25.16;63.24;92752.47;5072157;28;20242;-72
2022/09/10 10:07:00;;;;;;;15.63;13.75;;;;;;;25.53;60.78;92744.50;5072875;28;20275;-71
2022/09/10 10:09:32;;;;;;;15.77;13.57;;;;;;;25.55;60.80;92741.44;5073145;28;20272;-72
2022/09/10 10:11:59;;;;;;;17.42;14.32;;;;;;;25.47;62.02;92735.25;5066283;28;20205;-73
2022/09/10 10:14:30;;;;;;;16.40;14.07;;;;;;;25.27;62.26;92742.69;5059801;28;20247;-74
2022/09/10 10:16:57;;;;;;;17.60;14.23;;;;;;;24.82;63.00;92734.13;5064697;28;20192;-74
2022/09/10 10:19:39;;;;;;;16.00;14.40;;;;;;;24.45;63.43;92707.28;5064505;28;20315;-73
2022/09/10 10:22:13;;;;;;;14.90;13.15;;;;;;;24.69;64.95;92717.56;5069671;28;20182;-73
2022/09/10 10:24:41;;;;;;;16.10;14.45;;;;;;;24.77;64.13;92703.16;5061484;28;20742;-74
2022/09/10 10:27:34;;;;;;;16.30;14.70;;;;;;;24.92;64.70;92709.41;5071280;28;20165;-73
2022/09/10 10:30:22;;;;;;;17.98;14.48;;;;;;;25.21;64.62;92716.63;5071237;28;20216;-74
2022/09/10 10:32:58;;;;;;;15.70;14.10;;;;;;;25.76;62.80;92710.31;5066357;28;20203;-74
2022/09/10 10:35:29;;;;;;;14.95;13.55;;;;;;;26.27;61.25;92708.41;5071675;28;20231;-73
2022/09/10 10:38:02;;;;;;;16.83;14.05;;;;;;;26.51;58.92;92718.53;5100505;28;20205;-71
2022/09/10 10:40:35;;;;;;;14.88;13.57;;;;;;;26.44;58.26;92723.84;5071291;28;20217;-72
2022/09/10 10:43:35;;;;;;;14.73;13.43;;;;;;;26.40;60.05;92727.63;5061265;28;20225;-74
2022/09/10 10:46:08;;;;;;;19.92;16.10;;;;;;;25.85;59.21;92721.50;5064778;28;20275;-74
2022/09/10 10:48:46;;;;;;;15.65;14.07;;;;;;;25.85;59.70;92721.50;5070509;28;20182;-75
2022/09/10 10:51:32;;;;;;;16.75;13.98;;;;;;;26.39;57.05;92732.25;5081788;28;20193;-75
2022/09/10 10:54:13;;;;;;;15.15;13.38;;;;;;;26.49;56.08;92717.38;5065539;28;20234;-75
2022/09/10 10:56:58;;;;;;;17.48;13.40;;;;;;;26.76;54.52;92699.94;5051292;28;20195;-73
2022/09/10 11:00:09;;;;;;;15.10;13.55;;;;;;;26.28;56.21;92709.19;5051248;28;20233;-72
2022/09/10 11:03:03;;;;;;;27.15;20.45;;;;;;;26.02;59.58;92696.03;5049613;28;20234;-72
2022/09/10 11:05:37;;;;;;;20.85;14.43;;;;;;;26.65;56.98;92694.53;5040712;28;20250;-75
2022/09/10 11:08:14;;;;;;;14.65;13.18;;;;;;;26.58;56.19;92686.41;5051195;28;20181;-75
2022/09/10 11:10:55;;;;;;;15.95;14.25;;;;;;;26.60;56.88;92653.94;5050085;28;20229;-75
2022/09/10 11:13:42;;;;;;;15.50;13.73;;;;;;;27.18;57.17;92672.50;5044035;28;20216;-76
2022/09/10 11:16:14;;;;;;;14.63;13.27;;;;;;;27.15;54.38;92681.31;5069961;28;20205;-73
2022/09/10 11:18:55;;;;;;;13.93;12.77;;;;;;;27.30;54.08;92691.72;5071201;28;20197;-73
2022/09/10 11:21:36;;;;;;;15.05;13.60;;;;;;;27.81;52.29;92684.16;5070112;28;20174;-73
2022/09/10 11:24:17;;;;;;;14.18;12.65;;;;;;;27.68;54.26;92723.22;5068965;28;20221;-74
2022/09/10 11:27:15;;;;;;;13.18;10.70;;;;;;;26.06;55.12;92740.41;5063743;28;20207;-73
2022/09/10 11:30:05;;;;;;;10.35;9.30;;;;;;;24.83;57.84;92749.00;5060624;28;20233;-74
2022/09/10 11:32:54;;;;;;;9.32;8.60;;;;;;;24.22;58.14;92743.94;5103321;28;20173;-72